• Join FlightAware (Why Join?)
  • Login
  • US Flag 
06:37AM EDT


 

Airport Tracker/Info


-or-


 

Live Flight TrackerFlight Track Log ✈ QXE48 ✈ 11-Mar-2012 ✈ KPDX - KGEG

Flight Track Log - Related Links

Times and Time Zones

All times are in EDT time to prevent confusion due to time zone crossing. See the QXE48 flight status page for this flight to view local times or setup timezone preferences in your user account.

Time Position Orientation Groundspeed Altitude Reporting Facility
EDT Latitude Longitude Course Direction KTS MPH feet Rate Location/Type
09:59AM 45.5856 -122.5758 105° East 146 168 800  Level Seattle Center
10:00AM 45.5781 -122.5356 98° East 173 199 2,200 2,280 Climbing Seattle Center
10:01AM 45.5694 -122.4458 75° East 245 282 4,500 2,400 Climbing Seattle Center
10:02AM 45.5889 -122.3450 76° East 266 306 7,100 2,280 Climbing Seattle Center
10:03AM 45.6100 -122.2219 69° East 280 322 9,800 2,040 Climbing Seattle Center
10:04AM 45.6406 -122.1083 47° Northeast 306 352 11,800 2,100 Climbing Seattle Center
10:05AM 45.7014 -122.0158 50° Northeast 320 368 14,100 2,340 Climbing Seattle Center
10:06AM 45.7703 -121.8972 56° Northeast 329 379 16,600 2,100 Climbing Seattle Center
10:07AM 45.8250 -121.7817 54° Northeast 353 406 18,400 1,620 Climbing Seattle Center
10:08AM 45.8850 -121.6631 56° Northeast 364 419 19,900 1,560 Climbing Seattle Center
10:09AM 45.9428 -121.5419 55° Northeast 368 423 21,600 1,440 Climbing Seattle Center
10:11AM 46.0581 -121.3006 56° Northeast 369 425 24,300 1,080 Climbing Seattle Center
10:12AM 46.1167 -121.1764 55° Northeast 374 430 25,000 300 Climbing Seattle Center
10:13AM 46.1764 -121.0542 56° Northeast 373 429 25,000  Level Seattle Center
10:14AM 46.2344 -120.9306 55° Northeast 373 429 25,000  Level Seattle Center
10:15AM 46.2933 -120.8067 56° Northeast 375 432 25,000  Level Seattle Center
10:16AM 46.3511 -120.6825 56° Northeast 374 430 25,000  Level Seattle Center
10:17AM 46.4092 -120.5586 56° Northeast 374 430 25,000  Level Seattle Center
10:18AM 46.4678 -120.4344 55° Northeast 374 430 25,000  Level Seattle Center
10:19AM 46.5250 -120.3142 56° Northeast 369 425 25,000  Level Seattle Center
10:20AM 46.5817 -120.1914 56° Northeast 367 422 25,000  Level Seattle Center
10:21AM 46.6503 -120.0436 57° Northeast 369 425 25,000  Level Seattle Center
10:22AM 46.7081 -119.9133 55° Northeast 376 433 25,000  Level Seattle Center
10:23AM 46.7681 -119.7867 57° Northeast 377 434 25,000  Level Seattle Center
10:24AM 46.8247 -119.6600 56° Northeast 373 429 25,000  Level Seattle Center
10:26AM 46.8828 -119.5325 57° Northeast 376 433 25,000  Level Seattle Center
10:27AM 46.9397 -119.4056 57° Northeast 375 432 25,000  Level Seattle Center
10:28AM 46.9961 -119.2772 57° Northeast 375 432 25,000  Level Seattle Center
10:29AM 47.0528 -119.1492 57° Northeast 375 432 25,000 -60 Level Seattle Center
10:30AM 47.1092 -119.0231 58° Northeast 373 429 24,900 -1,020 Descending Seattle Center
10:31AM 47.1656 -118.8922 57° Northeast 376 433 23,000 -1,920 Descending Seattle Center
10:32AM 47.2236 -118.7622 56° Northeast 380 437 21,100 -1,980 Descending Seattle Center
10:33AM 47.2803 -118.6369 55° Northeast 374 430 19,000 -2,220 Descending Seattle Center
10:34AM 47.3378 -118.5147 59° Northeast 366 421 16,700 -2,160 Descending Seattle Center
10:35AM 47.3903 -118.3867 57° Northeast 356 410 14,700 -1,980 Descending Seattle Center
10:36AM 47.4394 -118.2731 56° Northeast 341 392 12,700 -1,980 Descending Seattle Center
10:37AM 47.4867 -118.1694 58° Northeast 305 351 10,800 -1,860 Descending Seattle Center
10:38AM 47.5311 -118.0656 62° Northeast 300 345 9,000 -1,800 Descending Seattle Center
10:39AM 47.5697 -117.9597 66° East 293 337 7,200 -1,740 Descending Seattle Center
10:40AM 47.6008 -117.8581 70° East 277 319 5,500 -1,440 Descending Seattle Center
10:41AM 47.6242 -117.7622 69° East 248 285 4,300 -660 Descending Seattle Center
10:42AM 47.6467 -117.6731 66° East 232 267 4,200 -60 Descending Seattle Center
10:43AM 47.6767 -117.5728 48° Northeast 227 261 4,200  Level Seattle Center
10:44AM 47.7211 -117.4997 48° Northeast 241 277 4,200  Level Seattle Center
10:45AM 47.7628 -117.4308 80° East 224 258 4,200  Level Seattle Center
10:46AM 47.7706 -117.3633 193° South 194 223 4,200  Level Seattle Center
10:47AM 47.7225 -117.3800 227° Southwest 178 205 4,200 -120 Level Seattle Center
10:48AM 47.6886 -117.4331 225° Southwest 174 200 4,000 -600 Descending Seattle Center
10:49AM 47.6603 -117.4756 225° Southwest 146 168 3,100 -780 Descending Seattle Center
10:50AM 47.6383 -117.5083 223° Southwest 114 131 2,500 -420 Descending Seattle Center
10:51AM 47.6217 -117.5314 357° North 92 106 2,300 -120 Descending Seattle Center
10:52AM 47.6292 -117.5319 357° North 74 85 2,300  Level Seattle Center